Time;durP1;ratioP1;P1;durP2;ratioP2;P2;SDS_P1;SDS_P2;PMS_P1;PMS_P2;Temp;Humidity;BMP_temperature;BMP_pressure;BME280_temperature;BME280_humidity;BME280_pressure;Samples;Min_cycle;Max_cycle;Signal;HPM_P1;HPM_P2
2022/11/13 00:02:08;;;;;;;6.83;3.40;;;1.40;96.30;;;;;;5034248;28;20231;-73
2022/11/13 00:04:34;;;;;;;3.47;2.83;;;1.30;96.30;;;;;;5034304;28;20180;-72
2022/11/13 00:07:00;;;;;;;5.20;3.37;;;1.20;96.30;;;;;;5016553;28;20172;-72
2022/11/13 00:09:25;;;;;;;4.13;2.67;;;1.10;96.30;;;;;;5034905;28;20771;-72
2022/11/13 00:11:51;;;;;;;2.83;2.07;;;1.00;96.30;;;;;;5017495;28;20200;-73
2022/11/13 00:14:16;;;;;;;3.10;2.43;;;0.90;96.30;;;;;;5016974;28;20714;-73
2022/11/13 00:16:42;;;;;;;3.30;2.17;;;0.80;96.30;;;;;;5033156;28;20659;-73
2022/11/13 00:19:07;;;;;;;2.60;2.13;;;0.80;96.30;;;;;;5033233;28;20176;-73
2022/11/13 00:21:33;;;;;;;3.77;2.13;;;0.90;96.30;;;;;;5015844;28;20248;-73
2022/11/13 00:23:58;;;;;;;2.77;2.10;;;1.10;96.30;;;;;;5015963;28;20287;-73
2022/11/13 00:26:26;;;;;;;2.63;1.97;;;1.20;96.30;;;;;;5033657;28;20164;-73
2022/11/13 00:28:57;;;;;;;4.17;2.13;;;1.10;96.30;;;;;;5033366;28;20644;-73
2022/11/13 00:31:23;;;;;;;3.17;2.10;;;1.30;96.30;;;;;;5015777;28;20435;-73
2022/11/13 00:33:49;;;;;;;2.87;1.77;;;1.40;96.30;;;;;;5033677;28;20426;-73
2022/11/13 00:36:17;;;;;;;2.50;1.83;;;1.50;96.30;;;;;;5033566;28;20411;-73
2022/11/13 00:38:43;;;;;;;5.23;2.10;;;1.60;96.30;;;;;;5016061;28;20241;-73
2022/11/13 00:41:08;;;;;;;3.30;1.90;;;1.70;96.30;;;;;;5033938;28;20466;-73
2022/11/13 00:43:34;;;;;;;3.33;1.93;;;1.70;96.30;;;;;;5035988;28;20180;-73
2022/11/13 00:45:59;;;;;;;6.80;2.40;;;1.70;96.30;;;;;;5016293;28;20236;-73
2022/11/13 00:48:25;;;;;;;2.60;2.10;;;1.70;96.30;;;;;;5033323;28;20651;-73
2022/11/13 00:50:51;;;;;;;3.20;2.27;;;1.60;96.30;;;;;;5016305;28;20204;-73
2022/11/13 00:53:17;;;;;;;3.67;2.07;;;1.60;96.30;;;;;;5016335;28;20188;-73
2022/11/13 00:55:43;;;;;;;3.20;2.17;;;1.70;96.30;;;;;;5034072;28;20419;-73
2022/11/13 00:58:12;;;;;;;2.23;1.70;;;1.60;96.30;;;;;;5032153;28;20176;-73
2022/11/13 05:02:31;;;;;;;2.30;1.80;;;-1.20;96.30;;;;;;4930449;23;20492;-72
2022/11/13 05:04:57;;;;;;;1.90;1.70;;;-1.20;96.30;;;;;;4916045;29;20499;-73
2022/11/13 05:07:25;;;;;;;5.60;4.23;;;-1.30;96.30;;;;;;4915284;29;20184;-73
2022/11/13 05:09:50;;;;;;;5.47;3.03;;;-1.30;96.30;;;;;;4915557;29;20423;-73
2022/11/13 05:12:16;;;;;;;4.00;2.60;;;-1.30;96.30;;;;;;4914534;29;20428;-73
2022/11/13 05:14:42;;;;;;;7.57;3.27;;;-1.30;96.30;;;;;;4915732;29;20191;-73
2022/11/13 05:17:09;;;;;;;3.87;2.50;;;-1.20;96.30;;;;;;4923932;29;20221;-73
2022/11/13 05:19:35;;;;;;;1.93;1.47;;;-1.10;96.30;;;;;;4924609;29;20180;-73
2022/11/13 05:22:01;;;;;;;6.30;2.40;;;-1.00;96.30;;;;;;4918911;29;20562;-73
2022/11/13 05:24:27;;;;;;;4.77;2.63;;;-0.90;96.30;;;;;;4916591;29;20183;-73
2022/11/13 05:26:53;;;;;;;6.63;3.57;;;-0.70;96.30;;;;;;4918416;29;20777;-73
2022/11/13 05:29:18;;;;;;;2.57;1.60;;;-0.60;96.30;;;;;;4919095;29;20184;-73
2022/11/13 06:19:43;;;;;;;2.30;1.10;;;-0.90;96.30;;;;;;5356038;23;20496;-73
2022/11/13 06:22:09;;;;;;;1.60;1.00;;;-1.00;96.30;;;;;;4955439;29;20458;-73
2022/11/13 06:24:34;;;;;;;3.23;1.07;;;-1.00;96.30;;;;;;4956461;29;20756;-74
2022/11/13 06:27:00;;;;;;;4.40;1.03;;;-1.00;96.30;;;;;;4955103;29;20190;-72
2022/11/13 06:29:25;;;;;;;1.90;1.00;;;-0.90;96.30;;;;;;4955516;29;20327;-73
2022/11/13 06:31:51;;;;;;;1.27;0.90;;;-0.70;96.30;;;;;;4959765;29;20338;-73
2022/11/13 06:34:16;;;;;;;4.43;1.10;;;-0.50;96.30;;;;;;4964037;29;20249;-73
2022/11/13 06:36:42;;;;;;;1.63;1.10;;;-0.40;96.30;;;;;;4968059;29;20223;-73
2022/11/13 06:39:09;;;;;;;1.80;1.20;;;-0.10;96.30;;;;;;4965513;29;20183;-73
2022/11/13 06:41:36;;;;;;;3.50;2.30;;;0.00;96.30;;;;;;5343983;23;20614;-72
2022/11/13 06:44:02;;;;;;;2.33;1.50;;;0.10;96.30;;;;;;4917170;29;20428;-73
2022/11/13 06:46:28;;;;;;;5.07;1.50;;;0.10;96.30;;;;;;4918439;29;20431;-73
2022/11/13 06:48:54;;;;;;;2.07;1.40;;;0.00;96.30;;;;;;4917882;29;20176;-72
2022/11/13 06:51:23;;;;;;;2.13;1.60;;;0.10;96.30;;;;;;4918172;29;20448;-73
2022/11/13 06:53:49;;;;;;;2.33;1.47;;;0.20;96.30;;;;;;4918305;29;20605;-73
2022/11/13 06:56:16;;;;;;;2.63;1.97;;;0.30;96.30;;;;;;4918308;29;20500;-72
2022/11/13 06:58:42;;;;;;;4.33;2.30;;;0.30;96.30;;;;;;4917737;29;20544;-74
2022/11/13 07:01:17;;;;;;;7.63;4.80;;;0.30;96.30;;;;;;4916795;29;20472;-73
2022/11/13 07:03:43;;;;;;;6.30;4.40;;;0.30;96.30;;;;;;4918213;29;20471;-72
2022/11/13 07:06:20;;;;;;;22.93;12.03;;;0.40;96.30;;;;;;4918146;29;20417;-72
2022/11/13 07:08:46;;;;;;;9.43;5.57;;;0.40;96.30;;;;;;4917764;29;20357;-72
2022/11/13 07:11:18;;;;;;;12.83;7.63;;;0.50;96.30;;;;;;4918092;29;20511;-73
2022/11/13 07:13:44;;;;;;;5.17;3.10;;;0.70;96.30;;;;;;4917990;29;20416;-72
2022/11/13 07:16:11;;;;;;;3.00;1.40;;;0.90;96.30;;;;;;4916600;29;20763;-72
2022/11/13 07:18:36;;;;;;;5.00;2.43;;;1.20;96.30;;;;;;4917511;29;20641;-74
2022/11/13 07:21:07;;;;;;;3.10;2.07;;;1.50;96.30;;;;;;4917664;29;20503;-72
2022/11/13 07:23:35;;;;;;;2.70;1.80;;;1.70;96.30;;;;;;4917862;29;20255;-73
2022/11/13 07:26:02;;;;;;;2.87;2.30;;;1.80;96.30;;;;;;4916380;29;20553;-72
2022/11/13 07:28:28;;;;;;;17.63;9.20;;;1.60;96.30;;;;;;4917245;29;20417;-73
2022/11/13 07:30:59;;;;;;;4.67;3.10;;;1.70;96.30;;;;;;4917514;29;20443;-72
2022/11/13 07:33:24;;;;;;;5.27;2.17;;;2.10;96.30;;;;;;4917643;29;20255;-73
2022/11/13 07:35:55;;;;;;;4.13;2.13;;;2.30;96.30;;;;;;4917539;29;20500;-73
2022/11/13 07:38:21;;;;;;;2.20;1.70;;;2.30;96.30;;;;;;4917095;29;20200;-74
2022/11/13 07:40:46;;;;;;;2.30;1.43;;;2.40;96.30;;;;;;4917155;29;20535;-73
2022/11/13 07:43:12;;;;;;;1.90;1.37;;;2.50;96.30;;;;;;4917349;29;20549;-73
2022/11/13 07:45:38;;;;;;;4.87;2.23;;;2.40;96.30;;;;;;4917258;29;20181;-73
2022/11/13 07:48:04;;;;;;;4.37;2.60;;;2.60;96.30;;;;;;4916479;29;20511;-73
2022/11/13 07:50:33;;;;;;;11.73;2.57;;;2.90;96.30;;;;;;4916874;29;20198;-74
2022/11/13 07:53:01;;;;;;;4.43;2.80;;;3.20;96.30;;;;;;4898417;29;20426;-73
2022/11/13 07:55:27;;;;;;;2.93;2.33;;;3.40;96.30;;;;;;4898444;29;20425;-73
2022/11/13 07:57:57;;;;;;;4.80;2.07;;;3.60;96.30;;;;;;4897605;29;20784;-73
2022/11/13 08:00:27;;;;;;;4.73;2.67;;;4.00;96.30;;;;;;4897926;29;20496;-73
2022/11/13 08:02:52;;;;;;;5.33;3.53;;;4.20;96.30;;;;;;4897980;29;21011;-73
2022/11/13 08:05:18;;;;;;;3.90;2.03;;;4.50;96.30;;;;;;4898068;29;20421;-73
2022/11/13 08:07:48;;;;;;;3.10;1.93;;;4.90;96.30;;;;;;4897729;29;20242;-74
2022/11/13 08:10:14;;;;;;;8.17;1.30;;;5.40;96.30;;;;;;4897898;29;20465;-73
2022/11/13 08:12:39;;;;;;;7.67;2.53;;;5.90;96.30;;;;;;4897982;29;20457;-73
2022/11/13 08:15:05;;;;;;;4.57;2.80;;;6.00;96.30;;;;;;4897819;29;20456;-73
2022/11/13 08:17:31;;;;;;;5.00;2.10;;;6.10;96.30;;;;;;4897320;29;20653;-73
2022/11/13 08:19:56;;;;;;;7.37;3.43;;;6.20;96.30;;;;;;4897506;29;20429;-73
2022/11/13 08:22:22;;;;;;;4.37;2.83;;;6.10;96.30;;;;;;4897643;29;20579;-73
2022/11/13 08:24:47;;;;;;;4.60;2.70;;;6.00;96.30;;;;;;4897543;29;20188;-73
2022/11/13 08:27:13;;;;;;;3.47;2.40;;;5.80;96.30;;;;;;4903740;29;20188;-73
2022/11/13 08:29:38;;;;;;;5.20;2.47;;;5.70;96.30;;;;;;4915877;29;20183;-73
2022/11/13 08:32:04;;;;;;;5.47;2.90;;;5.60;96.30;;;;;;4915126;29;20207;-73
2022/11/13 08:34:29;;;;;;;3.03;2.50;;;5.50;96.30;;;;;;4915185;29;20192;-73
2022/11/13 08:36:55;;;;;;;7.03;2.70;;;5.40;96.30;;;;;;4915272;29;20199;-73
2022/11/13 08:39:20;;;;;;;6.30;2.40;;;5.50;96.30;;;;;;4916049;29;20232;-73
2022/11/13 08:41:46;;;;;;;8.00;2.70;;;5.70;96.30;;;;;;4912944;29;20227;-73
2022/11/13 08:44:13;;;;;;;7.63;3.30;;;6.20;96.30;;;;;;4914109;29;20569;-73
2022/11/13 08:46:38;;;;;;;4.60;2.83;;;6.70;96.30;;;;;;4915567;29;20692;-73
2022/11/13 08:49:04;;;;;;;5.40;2.87;;;7.00;96.30;;;;;;4915691;29;20515;-73
2022/11/13 08:51:29;;;;;;;5.67;3.30;;;7.50;96.30;;;;;;4916883;29;20207;-73
2022/11/13 08:53:55;;;;;;;3.63;2.63;;;7.70;96.30;;;;;;4916150;29;20622;-73
2022/11/13 08:56:20;;;;;;;5.10;2.83;;;7.80;96.30;;;;;;4915275;29;20185;-73
2022/11/13 08:58:46;;;;;;;4.63;2.50;;;7.90;96.30;;;;;;4915422;29;20169;-73
2022/11/13 09:01:11;;;;;;;3.67;2.73;;;8.00;96.30;;;;;;4898967;29;20687;-73
2022/11/13 09:03:37;;;;;;;7.90;2.90;;;8.00;96.30;;;;;;4918447;29;20208;-73
2022/11/13 09:06:07;;;;;;;8.20;3.73;;;8.20;96.30;;;;;;4915817;29;20219;-73
2022/11/13 09:08:32;;;;;;;5.00;2.87;;;8.20;96.30;;;;;;4913719;29;20176;-73
2022/11/13 09:11:03;;;;;;;5.30;3.20;;;8.30;96.30;;;;;;4915625;29;20503;-73
2022/11/13 09:13:28;;;;;;;3.90;2.53;;;8.30;96.30;;;;;;4915518;29;20672;-73
2022/11/13 09:16:00;;;;;;;4.67;3.13;;;8.40;96.30;;;;;;4930141;29;20431;-73
2022/11/13 09:18:26;;;;;;;5.73;2.77;;;8.50;96.30;;;;;;4933880;29;20518;-72
2022/11/13 09:20:52;;;;;;;4.73;3.23;;;8.50;96.30;;;;;;4933301;29;20948;-72
2022/11/13 09:23:18;;;;;;;6.60;2.80;;;8.50;96.30;;;;;;4934572;29;20418;-72
2022/11/13 09:25:43;;;;;;;3.57;2.83;;;8.60;96.30;;;;;;4933088;29;20184;-72
2022/11/13 09:28:09;;;;;;;7.07;3.40;;;8.70;96.30;;;;;;4920771;29;20180;-72
2022/11/13 09:30:37;;;;;;;6.33;3.87;;;8.90;96.30;;;;;;4915331;29;20214;-72
2022/11/13 09:33:03;;;;;;;12.50;3.50;;;8.90;96.30;;;;;;4915590;29;20180;-72
2022/11/13 09:35:33;;;;;;;4.00;3.00;;;9.00;96.30;;;;;;4915350;29;20416;-72
2022/11/13 09:38:10;;;;;;;4.30;3.03;;;9.00;96.30;;;;;;4916080;29;20169;-71
2022/11/13 09:41:09;;;;;;;4.87;3.23;;;9.20;96.30;;;;;;4918471;29;20436;-72
2022/11/13 09:43:51;;;;;;;6.33;3.30;;;9.20;96.30;;;;;;4919279;29;20440;-72
2022/11/13 09:46:35;;;;;;;4.90;3.10;;;9.40;96.30;;;;;;4919332;29;20460;-72
2022/11/13 09:49:31;;;;;;;5.63;3.40;;;9.40;96.30;;;;;;4915101;29;20522;-71
2022/11/13 09:52:01;;;;;;;7.97;3.57;;;9.40;96.30;;;;;;4926320;29;20440;-72
2022/11/13 09:54:26;;;;;;;7.37;3.23;;;9.50;96.30;;;;;;4916829;29;20449;-73
2022/11/13 09:57:13;;;;;;;5.10;2.90;;;9.80;96.30;;;;;;4916072;29;20932;-72
2022/11/13 09:59:59;;;;;;;4.33;2.63;;;10.10;96.30;;;;;;4914503;29;20184;-72
2022/11/13 10:02:53;;;;;;;5.83;1.70;;;10.30;96.30;;;;;;4916724;29;20468;-72
2022/11/13 10:05:24;;;;;;;3.57;2.10;;;10.60;96.30;;;;;;4899609;29;20516;-72
2022/11/13 10:08:09;;;;;;;5.10;2.83;;;11.20;96.30;;;;;;4914257;29;21014;-72
2022/11/13 10:10:48;;;;;;;3.43;1.93;;;12.10;96.30;;;;;;4913842;29;20802;-74
2022/11/13 10:13:31;;;;;;;2.70;2.37;;;13.30;96.30;;;;;;4918355;29;20544;-72
2022/11/13 10:16:11;;;;;;;8.80;2.87;;;14.30;96.30;;;;;;4917870;29;20428;-72
2022/11/13 10:18:38;;;;;;;2.80;2.23;;;15.00;95.50;;;;;;4926353;29;20431;-73
2022/11/13 10:21:36;;;;;;;3.60;1.77;;;15.50;94.10;;;;;;4918091;29;20468;-72
2022/11/13 10:24:11;;;;;;;2.83;2.10;;;16.20;91.70;;;;;;4917825;29;20420;-73
2022/11/13 10:26:37;;;;;;;3.20;2.63;;;16.10;90.60;;;;;;4917411;29;20427;-73
2022/11/13 10:29:11;;;;;;;3.93;2.80;;;16.60;89.50;;;;;;4917238;29;20416;-74
2022/11/13 10:31:45;;;;;;;4.83;2.80;;;17.50;87.50;;;;;;4918150;29;20200;-76
2022/11/13 10:34:12;;;;;;;5.53;2.80;;;17.70;85.50;;;;;;4917739;29;20416;-75
2022/11/13 10:36:56;;;;;;;3.10;2.47;;;17.90;86.90;;;;;;4916521;29;20424;-76
2022/11/13 10:39:21;;;;;;;3.23;1.93;;;17.50;85.90;;;;;;4904505;29;20780;-75
2022/11/13 10:41:49;;;;;;;8.20;2.63;;;17.20;85.40;;;;;;4917656;29;20472;-75
2022/11/13 10:44:25;;;;;;;4.23;1.80;;;16.60;86.50;;;;;;4917680;29;20191;-75
2022/11/13 10:47:13;;;;;;;4.60;3.60;;;15.80;90.00;;;;;;4917109;29;20419;-75
2022/11/13 10:49:39;;;;;;;2.27;2.07;;;15.80;90.60;;;;;;4917337;29;20416;-75
2022/11/13 10:52:17;;;;;;;34.00;21.50;;;15.50;89.80;;;;;;4917184;29;20435;-75
2022/11/13 10:54:43;;;;;;;6.70;5.13;;;15.50;91.80;;;;;;4913253;29;20198;-75
2022/11/13 10:57:33;;;;;;;11.47;8.80;;;15.60;90.50;;;;;;4916878;29;20416;-76
2022/11/13 10:59:59;;;;;;;4.07;3.30;;;15.30;90.60;;;;;;4917678;29;20184;-76
2022/11/13 11:02:26;;;;;;;5.57;2.40;;;15.10;91.90;;;;;;4915994;29;20475;-76
2022/11/13 11:05:25;;;;;;;2.00;1.60;;;14.70;91.30;;;;;;4924133;29;20445;-76
2022/11/13 11:07:53;;;;;;;2.53;1.43;;;14.70;90.30;;;;;;4906813;29;20456;-77
2022/11/13 11:10:31;;;;;;;4.00;1.47;;;14.20;89.50;;;;;;4908356;29;20428;-73
2022/11/13 11:13:24;;;;;;;2.53;1.83;;;14.10;90.70;;;;;;4912313;29;20419;-73
2022/11/13 11:16:10;;;;;;;2.63;1.53;;;14.10;91.70;;;;;;4907617;29;20425;-73
2022/11/13 11:18:41;;;;;;;2.97;1.80;;;14.00;92.60;;;;;;4898004;29;20448;-72
2022/11/13 11:21:11;;;;;;;1.97;1.50;;;13.70;95.00;;;;;;4898452;29;20452;-73
2022/11/13 11:23:52;;;;;;;5.63;1.80;;;13.90;94.00;;;;;;4898520;29;20944;-74
2022/11/13 11:26:41;;;;;;;3.40;2.10;;;14.10;94.10;;;;;;4898166;29;20409;-74
2022/11/13 11:29:32;;;;;;;4.50;2.03;;;14.20;94.50;;;;;;4910595;29;20791;-72
2022/11/13 11:32:01;;;;;;;2.37;1.90;;;14.10;95.20;;;;;;4911145;29;20455;-73
2022/11/13 11:34:35;;;;;;;4.20;2.67;;;14.20;96.00;;;;;;4898129;29;20421;-73
2022/11/13 11:37:15;;;;;;;3.63;2.03;;;14.40;95.00;;;;;;4898125;29;20393;-72
2022/11/13 11:39:53;;;;;;;3.83;1.83;;;14.60;94.60;;;;;;4898454;29;20394;-72
2022/11/13 11:42:33;;;;;;;2.23;2.03;;;14.70;93.90;;;;;;4914937;29;20468;-73
2022/11/13 11:45:12;;;;;;;2.40;1.90;;;14.50;94.70;;;;;;4916797;29;20484;-72
2022/11/13 11:47:38;;;;;;;2.40;1.70;;;14.50;94.80;;;;;;4897460;29;20413;-72
2022/11/13 11:50:11;;;;;;;2.40;1.80;;;14.50;95.10;;;;;;4908521;29;20422;-73
2022/11/13 11:52:58;;;;;;;3.17;1.90;;;14.30;95.00;;;;;;4915443;29;20416;-73
2022/11/13 11:55:56;;;;;;;3.77;1.50;;;14.40;94.80;;;;;;4916937;29;20455;-73
2022/11/13 11:58:33;;;;;;;3.10;1.50;;;14.50;96.00;;;;;;4915501;29;20852;-73
2022/11/13 12:01:20;;;;;;;4.80;1.90;;;14.60;94.60;;;;;;4913758;29;20496;-73
2022/11/13 12:03:52;;;;;;;2.40;1.63;;;14.80;96.00;;;;;;4916583;29;20805;-74
2022/11/13 12:06:18;;;;;;;2.13;1.43;;;15.10;95.00;;;;;;4916467;29;20408;-73
2022/11/13 12:08:54;;;;;;;2.67;1.60;;;14.80;93.80;;;;;;4913483;29;20439;-73
2022/11/13 12:11:26;;;;;;;3.93;1.33;;;14.60;94.60;;;;;;4916308;29;20203;-73
2022/11/13 12:14:03;;;;;;;1.80;1.07;;;14.80;94.50;;;;;;4916521;29;20439;-73
2022/11/13 12:16:37;;;;;;;4.77;1.83;;;15.00;92.60;;;;;;4916455;29;20424;-73
2022/11/13 12:19:24;;;;;;;4.60;1.30;;;14.90;93.00;;;;;;4916093;29;20510;-73
2022/11/13 12:22:23;;;;;;;2.20;1.37;;;14.90;93.20;;;;;;4915197;29;20474;-73
2022/11/13 12:24:55;;;;;;;1.80;1.27;;;15.20;91.40;;;;;;4908950;29;20491;-73
2022/11/13 12:27:29;;;;;;;2.30;1.27;;;15.20;90.60;;;;;;4915619;29;20947;-73
2022/11/13 12:30:14;;;;;;;1.50;1.30;;;15.20;90.80;;;;;;4916298;29;20408;-73
2022/11/13 12:33:02;;;;;;;3.23;1.50;;;15.10;91.30;;;;;;4917052;29;20976;-73
2022/11/13 12:35:28;;;;;;;2.10;1.90;;;15.10;91.20;;;;;;4916139;29;20471;-73
2022/11/13 12:38:07;;;;;;;2.10;1.60;;;15.00;92.20;;;;;;4914309;29;20467;-73
2022/11/13 12:40:40;;;;;;;2.70;1.57;;;14.90;92.10;;;;;;4915670;29;20432;-72
2022/11/13 12:43:23;;;;;;;2.13;1.53;;;14.60;93.00;;;;;;4914657;29;20472;-72
2022/11/13 12:45:52;;;;;;;1.43;1.33;;;14.20;94.20;;;;;;4914909;29;20408;-72
2022/11/13 12:48:18;;;;;;;6.87;1.77;;;14.40;93.50;;;;;;4915395;29;20408;-73
2022/11/13 12:50:43;;;;;;;3.67;2.30;;;14.40;93.60;;;;;;4915612;29;20436;-71
2022/11/13 12:53:11;;;;;;;2.03;1.80;;;14.40;94.10;;;;;;4915895;29;20208;-72
2022/11/13 12:55:39;;;;;;;6.33;4.60;;;14.30;94.70;;;;;;4914292;29;20184;-72
2022/11/13 12:58:20;;;;;;;3.60;2.80;;;14.20;94.70;;;;;;4915093;29;20412;-72
2022/11/13 13:01:13;;;;;;;4.30;1.97;;;14.10;95.30;;;;;;4915584;29;20444;-72
2022/11/13 13:03:57;;;;;;;3.10;2.10;;;14.00;95.90;;;;;;4915305;29;20431;-72
2022/11/13 13:07:01;;;;;;;7.40;3.30;;;14.00;95.30;;;;;;4915511;29;20416;-72
2022/11/13 13:09:53;;;;;;;3.20;2.40;;;13.80;96.30;;;;;;4915558;29;20412;-72
2022/11/13 13:12:28;;;;;;;3.10;2.10;;;13.70;96.30;;;;;;4915283;29;20429;-72
2022/11/13 13:15:05;;;;;;;3.83;2.40;;;13.50;96.30;;;;;;4915640;29;20400;-72
2022/11/13 13:17:30;;;;;;;3.93;2.50;;;13.50;96.30;;;;;;4914918;29;20405;-72
2022/11/13 13:20:03;;;;;;;3.80;2.50;;;13.50;96.30;;;;;;4915472;29;20415;-72
2022/11/13 13:22:30;;;;;;;3.70;2.20;;;13.40;96.30;;;;;;4915367;29;20211;-72
2022/11/13 13:25:35;;;;;;;3.33;2.20;;;13.30;96.30;;;;;;4915299;29;20446;-73
2022/11/13 13:28:06;;;;;;;4.43;3.33;;;13.30;96.30;;;;;;4914841;29;20435;-72
2022/11/13 13:30:47;;;;;;;4.90;3.00;;;12.90;96.30;;;;;;4915230;29;20499;-73
2022/11/13 13:33:35;;;;;;;5.63;3.27;;;12.80;96.30;;;;;;4915326;29;20617;-73
2022/11/13 13:36:07;;;;;;;4.30;2.77;;;12.80;96.30;;;;;;4915542;29;20466;-73
2022/11/13 13:38:59;;;;;;;4.03;2.97;;;12.90;96.30;;;;;;4914706;29;20419;-72
2022/11/13 13:42:02;;;;;;;6.77;4.27;;;12.90;96.30;;;;;;4912395;29;20972;-72
2022/11/13 13:44:51;;;;;;;5.07;3.53;;;13.00;96.30;;;;;;4915320;29;20451;-72
2022/11/13 13:47:31;;;;;;;4.70;3.40;;;12.90;96.30;;;;;;4914697;29;20401;-73
2022/11/13 13:49:57;;;;;;;4.40;3.20;;;12.80;96.30;;;;;;4914973;29;20400;-73
2022/11/13 13:52:31;;;;;;;5.53;3.60;;;12.70;96.30;;;;;;4913798;29;20589;-73
2022/11/13 13:54:59;;;;;;;10.07;3.90;;;12.40;96.30;;;;;;4914950;29;20191;-72
2022/11/13 13:57:25;;;;;;;5.07;4.07;;;12.30;96.30;;;;;;4914509;29;20467;-73
2022/11/13 13:59:51;;;;;;;14.20;7.10;;;12.10;96.30;;;;;;4914991;29;20455;-72
2022/11/13 14:02:21;;;;;;;7.80;5.67;;;11.80;96.30;;;;;;4915049;29;20527;-73
2022/11/13 14:04:49;;;;;;;9.80;7.57;;;11.70;96.30;;;;;;4914918;29;20260;-73
2022/11/13 14:07:27;;;;;;;78.20;46.83;;;11.50;96.30;;;;;;4914414;29;20777;-73
2022/11/13 14:10:15;;;;;;;6.70;5.50;;;11.30;96.30;;;;;;4914885;29;20785;-73
2022/11/13 14:12:45;;;;;;;12.43;7.93;;;11.00;96.30;;;;;;4915042;29;20430;-74
2022/11/13 14:15:32;;;;;;;111.77;63.37;;;10.80;96.30;;;;;;4914999;29;21118;-73
2022/11/13 14:18:25;;;;;;;69.53;34.20;;;10.70;96.30;;;;;;4914284;29;20836;-73
2022/11/13 14:20:55;;;;;;;113.03;70.87;;;10.50;96.30;;;;;;4914159;29;20460;-73
2022/11/13 14:23:20;;;;;;;30.40;23.83;;;10.30;96.30;;;;;;4913649;29;20448;-73
2022/11/13 14:25:47;;;;;;;42.83;31.33;;;10.10;96.30;;;;;;4917593;29;20447;-73
2022/11/13 14:28:18;;;;;;;12.63;9.40;;;9.90;96.30;;;;;;4916575;29;20184;-73
2022/11/13 14:30:50;;;;;;;8.20;6.00;;;9.80;96.30;;;;;;4918253;29;20439;-73
2022/11/13 14:33:24;;;;;;;8.50;5.60;;;9.40;96.30;;;;;;4918348;29;20423;-73
2022/11/13 14:35:53;;;;;;;8.50;5.67;;;9.30;96.30;;;;;;4918419;29;20531;-73
2022/11/13 14:38:22;;;;;;;4.87;3.77;;;9.00;96.30;;;;;;4917712;29;20439;-73
2022/11/13 14:40:48;;;;;;;8.87;6.97;;;8.80;96.30;;;;;;4917981;29;20451;-73
2022/11/13 14:43:22;;;;;;;13.03;8.63;;;8.60;96.30;;;;;;4918030;29;20464;-73
2022/11/13 14:45:56;;;;;;;9.07;6.67;;;8.50;96.30;;;;;;4918126;29;20452;-73
2022/11/13 14:48:33;;;;;;;10.80;7.33;;;8.20;96.30;;;;;;4917429;29;20404;-73
2022/11/13 14:51:04;;;;;;;15.03;7.73;;;8.10;96.30;;;;;;4917780;29;20454;-73
2022/11/13 14:53:33;;;;;;;11.47;8.23;;;7.90;96.30;;;;;;4918088;29;20417;-73
2022/11/13 14:56:10;;;;;;;11.30;8.00;;;7.80;96.30;;;;;;4917831;29;20413;-72
2022/11/13 14:58:46;;;;;;;10.97;7.97;;;7.70;96.30;;;;;;4917410;29;20773;-72
2022/11/13 15:01:32;;;;;;;10.33;7.47;;;7.40;96.30;;;;;;4917651;29;20502;-72
2022/11/13 15:03:57;;;;;;;13.07;7.00;;;7.30;96.30;;;;;;4917758;29;20416;-73
2022/11/13 15:06:25;;;;;;;68.70;40.07;;;7.10;96.30;;;;;;4917924;29;20420;-73
2022/11/13 15:08:54;;;;;;;13.50;8.03;;;6.90;96.30;;;;;;4916504;29;20185;-73
2022/11/13 15:11:22;;;;;;;14.63;10.47;;;6.70;96.30;;;;;;4917446;29;20458;-73
2022/11/13 15:13:48;;;;;;;8.70;6.70;;;6.60;96.30;;;;;;4917588;29;20420;-73
2022/11/13 15:16:27;;;;;;;15.00;10.10;;;6.40;96.30;;;;;;4917439;29;20472;-73
2022/11/13 15:19:27;;;;;;;11.43;7.53;;;6.30;96.30;;;;;;4917388;29;20274;-73
2022/11/13 15:21:53;;;;;;;14.97;8.23;;;6.10;96.30;;;;;;4914514;29;20478;-73
2022/11/13 15:24:19;;;;;;;11.43;7.70;;;6.00;96.30;;;;;;4917426;29;20443;-74
2022/11/13 15:26:45;;;;;;;14.23;8.30;;;6.00;96.30;;;;;;4915590;29;20515;-73
2022/11/13 15:29:10;;;;;;;13.23;8.50;;;5.80;96.30;;;;;;4917173;29;20177;-73
2022/11/13 15:31:40;;;;;;;18.93;13.03;;;5.60;96.30;;;;;;4917280;29;20260;-73
2022/11/13 15:34:05;;;;;;;28.83;19.57;;;5.50;96.30;;;;;;4916996;29;20679;-73
2022/11/13 15:36:31;;;;;;;26.53;17.77;;;5.50;96.30;;;;;;4916909;29;20408;-73
2022/11/13 15:38:57;;;;;;;15.77;10.00;;;5.40;96.30;;;;;;4916891;29;20228;-73
2022/11/13 15:41:27;;;;;;;11.40;8.90;;;5.30;96.30;;;;;;4916724;29;20622;-73
2022/11/13 15:43:54;;;;;;;22.93;15.63;;;5.30;96.30;;;;;;4916943;29;20416;-73
2022/11/13 15:46:21;;;;;;;20.57;13.73;;;5.30;96.30;;;;;;4916950;29;20416;-73
2022/11/13 15:48:48;;;;;;;14.40;10.27;;;5.20;96.30;;;;;;4916443;29;20424;-73
2022/11/13 15:51:34;;;;;;;29.13;18.77;;;5.20;96.30;;;;;;4916746;29;20432;-72
2022/11/13 15:54:14;;;;;;;43.13;23.77;;;5.10;96.30;;;;;;4917056;29;20452;-74
2022/11/13 15:56:41;;;;;;;32.40;18.93;;;5.00;96.30;;;;;;4916721;29;20403;-73
2022/11/13 15:59:10;;;;;;;33.07;20.60;;;4.90;96.30;;;;;;4916636;29;20412;-72
2022/11/13 16:01:36;;;;;;;35.27;23.10;;;4.70;96.30;;;;;;4916617;29;20551;-72
2022/11/13 16:04:04;;;;;;;42.23;25.03;;;4.70;96.30;;;;;;4916829;29;20809;-72
2022/11/13 16:06:32;;;;;;;14.83;10.90;;;4.60;96.30;;;;;;4915573;29;20263;-72
2022/11/13 16:08:58;;;;;;;12.80;10.37;;;4.60;96.30;;;;;;4916239;29;20495;-72
2022/11/13 16:11:24;;;;;;;23.63;14.50;;;4.70;96.30;;;;;;4915214;29;20540;-72
2022/11/13 16:13:50;;;;;;;16.00;11.23;;;4.60;96.30;;;;;;4916570;29;20172;-73
2022/11/13 16:16:28;;;;;;;20.73;14.20;;;4.60;96.30;;;;;;4916318;29;20181;-73
2022/11/13 16:18:54;;;;;;;36.40;25.20;;;4.60;96.30;;;;;;4914705;29;20191;-73
2022/11/13 16:21:20;;;;;;;17.47;13.07;;;4.30;96.30;;;;;;4916137;29;20823;-73
2022/11/13 16:23:46;;;;;;;17.57;11.43;;;4.20;96.30;;;;;;4916331;29;20514;-72
2022/11/13 16:26:18;;;;;;;19.77;14.20;;;4.20;96.30;;;;;;4916153;29;20436;-73
2022/11/13 16:28:44;;;;;;;37.13;21.83;;;4.00;96.30;;;;;;4914459;29;20649;-73
2022/11/13 16:31:10;;;;;;;17.70;12.10;;;4.10;96.30;;;;;;4914893;29;20467;-73
2022/11/13 16:33:36;;;;;;;16.27;11.60;;;4.10;96.30;;;;;;4916273;29;20652;-73
2022/11/13 16:36:02;;;;;;;15.17;10.80;;;4.10;96.30;;;;;;4916266;29;20176;-73
2022/11/13 16:38:27;;;;;;;17.97;10.90;;;4.00;96.30;;;;;;4914404;29;20183;-73
2022/11/13 16:40:53;;;;;;;37.17;25.90;;;4.30;96.30;;;;;;4915905;29;20436;-73
2022/11/13 16:43:18;;;;;;;21.17;15.43;;;4.40;96.30;;;;;;4915737;29;20207;-73
2022/11/13 16:45:44;;;;;;;56.27;39.70;;;4.50;96.30;;;;;;4915619;29;20675;-72
2022/11/13 16:48:14;;;;;;;49.77;28.97;;;4.50;96.30;;;;;;4914761;29;20175;-73
2022/11/13 16:50:40;;;;;;;23.37;16.60;;;4.50;96.30;;;;;;4915737;29;20193;-73
2022/11/13 16:53:07;;;;;;;18.50;11.47;;;4.50;96.30;;;;;;4914626;29;20805;-72
2022/11/13 16:55:35;;;;;;;25.93;16.57;;;4.60;96.30;;;;;;4915626;29;20797;-73
2022/11/13 16:58:03;;;;;;;16.97;11.53;;;4.70;96.30;;;;;;4915313;29;20412;-73
2022/11/13 17:00:28;;;;;;;10.50;7.90;;;4.80;96.30;;;;;;4914447;29;20964;-73
2022/11/13 17:02:54;;;;;;;16.23;11.80;;;4.80;96.30;;;;;;4915670;29;20459;-73
2022/11/13 17:05:21;;;;;;;17.50;11.27;;;4.90;96.30;;;;;;4915473;29;20180;-73
2022/11/13 17:07:49;;;;;;;17.60;12.47;;;5.00;96.30;;;;;;4913854;29;20185;-73
2022/11/13 17:10:18;;;;;;;16.50;10.90;;;5.00;96.30;;;;;;4915544;29;20423;-73
2022/11/13 17:12:51;;;;;;;17.77;12.13;;;5.00;96.30;;;;;;4915602;29;20409;-73
2022/11/13 17:15:17;;;;;;;11.80;8.70;;;5.00;96.30;;;;;;4915669;29;20415;-73
2022/11/13 17:17:44;;;;;;;17.07;9.40;;;5.00;96.30;;;;;;4914732;29;20471;-73
2022/11/13 17:20:10;;;;;;;18.63;13.43;;;5.10;96.30;;;;;;4915505;29;20416;-73
2022/11/13 17:22:36;;;;;;;19.87;12.90;;;5.20;96.30;;;;;;4915155;29;20972;-72
2022/11/13 17:25:02;;;;;;;15.20;11.70;;;5.30;96.30;;;;;;4911274;29;20435;-73
2022/11/13 17:27:28;;;;;;;17.80;12.23;;;5.40;96.30;;;;;;4895843;29;20192;-71
2022/11/13 17:29:53;;;;;;;24.23;12.80;;;5.40;96.30;;;;;;4904075;29;20440;-72
2022/11/13 17:32:19;;;;;;;20.17;13.43;;;5.40;96.30;;;;;;4912957;29;20204;-72
2022/11/13 17:34:44;;;;;;;18.20;10.73;;;5.30;96.30;;;;;;4922962;29;20180;-72
2022/11/13 17:37:10;;;;;;;28.80;14.97;;;5.30;96.30;;;;;;4931434;29;20628;-72
2022/11/13 17:39:35;;;;;;;26.50;14.73;;;5.30;96.30;;;;;;4931667;29;20190;-72
2022/11/13 17:42:01;;;;;;;30.43;14.33;;;5.30;96.30;;;;;;4931832;29;20688;-72
2022/11/13 17:44:26;;;;;;;31.87;17.87;;;5.40;96.30;;;;;;4931899;29;20182;-72
2022/11/13 17:46:52;;;;;;;26.70;16.43;;;5.40;96.30;;;;;;4921542;29;20541;-72
2022/11/13 17:49:18;;;;;;;26.77;15.20;;;5.40;96.30;;;;;;4910681;29;20263;-72
2022/11/13 17:51:43;;;;;;;30.63;18.13;;;5.50;96.30;;;;;;4911627;29;20200;-72
2022/11/13 17:54:09;;;;;;;19.77;13.47;;;5.50;96.30;;;;;;4913249;29;20553;-72
2022/11/13 17:56:36;;;;;;;35.40;17.23;;;5.40;96.30;;;;;;4912776;29;20672;-72
2022/11/13 17:59:02;;;;;;;17.20;11.33;;;5.50;96.30;;;;;;4915231;29;20179;-72